createdAt,value
2023-03-26T00:03:12.184Z,9.45
2023-03-26T00:08:16.602Z,9.54
2023-03-26T00:13:23.516Z,9.61
2023-03-26T00:18:30.332Z,9.67
2023-03-26T00:23:35.252Z,9.64
2023-03-26T00:28:38.468Z,9.63
2023-03-26T00:33:42.689Z,9.65
2023-03-26T00:38:47.186Z,9.69
2023-03-26T00:44:09.357Z,9.68
2023-03-26T00:49:14.840Z,9.65
2023-03-26T00:54:36.700Z,9.66
2023-03-26T00:59:39.463Z,9.58
2023-03-26T01:04:45.250Z,9.51
2023-03-26T01:09:50.493Z,9.35
2023-03-26T01:14:56.660Z,9.13
2023-03-26T01:20:26.817Z,9.01
2023-03-26T01:25:34.462Z,8.81
2023-03-26T01:30:42.693Z,8.86
2023-03-26T01:36:18.125Z,8.79
2023-03-26T01:41:45.138Z,8.69
2023-03-26T01:46:48.723Z,8.65
2023-03-26T01:51:51.348Z,8.67
2023-03-26T01:57:17.597Z,8.76
2023-03-26T02:02:42.859Z,8.86
2023-03-26T02:07:52.138Z,8.93
2023-03-26T02:12:54.799Z,8.93
2023-03-26T02:17:56.583Z,9.08
2023-03-26T02:22:59.956Z,9.18
2023-03-26T02:28:02.813Z,9.24
2023-03-26T02:33:04.880Z,9.18
2023-03-26T02:38:14.583Z,9.08
2023-03-26T02:43:17.072Z,8.92
2023-03-26T02:48:20.405Z,8.82
2023-03-26T02:53:30.915Z,8.75
2023-03-26T02:59:02.097Z,8.75
2023-03-26T03:04:04.531Z,8.71
2023-03-26T03:09:12.846Z,8.65
2023-03-26T03:14:35.020Z,8.64
2023-03-26T03:19:37.821Z,8.68
2023-03-26T03:24:39.990Z,8.79
2023-03-26T03:29:41.735Z,8.67
2023-03-26T03:35:18.979Z,8.58
2023-03-26T03:40:23.957Z,8.65
2023-03-26T03:45:26.936Z,8.78
2023-03-26T03:50:47.431Z,8.83
2023-03-26T03:56:02.000Z,8.87
2023-03-26T04:06:18.776Z,8.79
2023-03-26T04:11:23.947Z,8.76
2023-03-26T04:16:42.617Z,8.82
2023-03-26T04:21:44.644Z,8.92
2023-03-26T04:26:48.190Z,8.86
2023-03-26T04:31:58.670Z,8.76
2023-03-26T04:37:02.607Z,8.62
2023-03-26T04:42:12.044Z,8.71
2023-03-26T04:47:24.273Z,8.79
2023-03-26T04:52:26.379Z,8.89
2023-03-26T04:57:53.118Z,8.74
2023-03-26T05:03:15.791Z,8.67
2023-03-26T05:08:18.647Z,8.72
2023-03-26T05:13:20.862Z,8.69
2023-03-26T05:18:24.842Z,8.67
2023-03-26T05:23:27.964Z,8.67
2023-03-26T05:28:40.594Z,8.75
2023-03-26T05:34:11.575Z,8.95
2023-03-26T05:39:14.296Z,9.24
2023-03-26T05:50:07.650Z,9.45
2023-03-26T05:55:11.340Z,9.60
2023-03-26T06:00:43.348Z,9.56
2023-03-26T06:05:46.792Z,9.69
2023-03-26T06:11:04.588Z,9.97
2023-03-26T06:16:27.319Z,10.38
2023-03-26T06:21:50.498Z,10.46
2023-03-26T06:26:56.601Z,10.63
2023-03-26T06:32:06.407Z,10.45
2023-03-26T06:37:22.848Z,10.34
2023-03-26T06:43:06.689Z,10.51
2023-03-26T06:48:17.475Z,10.65
2023-03-26T06:53:30.962Z,10.75
2023-03-26T06:58:45.908Z,10.81
2023-03-26T07:04:06.190Z,10.99
2023-03-26T07:09:30.345Z,10.94
2023-03-26T07:14:55.941Z,10.92
2023-03-26T07:20:16.922Z,11.17
2023-03-26T07:25:20.503Z,11.46
2023-03-26T07:30:55.446Z,11.89
2023-03-26T07:36:29.585Z,12.34
2023-03-26T07:42:23.451Z,12.65
2023-03-26T07:47:45.238Z,12.68
2023-03-26T07:52:53.943Z,12.51
2023-03-26T07:59:03.597Z,12.50
2023-03-26T08:04:50.995Z,12.49
2023-03-26T08:11:07.536Z,12.40
2023-03-26T08:16:45.662Z,12.31
2023-03-26T08:22:02.176Z,12.27
2023-03-26T08:27:21.852Z,12.41
2023-03-26T08:32:25.436Z,12.91
2023-03-26T08:37:27.840Z,13.15
2023-03-26T08:42:45.333Z,12.98
2023-03-26T08:48:03.354Z,12.59
2023-03-26T08:53:17.657Z,12.41
2023-03-26T08:58:36.436Z,12.29
2023-03-26T09:04:03.091Z,12.29
2023-03-26T09:09:33.073Z,12.48
2023-03-26T09:14:53.164Z,12.74
2023-03-26T09:20:25.227Z,12.84
2023-03-26T09:25:51.729Z,12.62
2023-03-26T09:31:11.943Z,12.92
2023-03-26T09:36:32.122Z,12.66
2023-03-26T09:41:53.705Z,12.20
2023-03-26T09:47:07.454Z,12.03
2023-03-26T09:52:35.642Z,12.07
2023-03-26T09:57:59.305Z,12.62
2023-03-26T10:03:58.926Z,13.46
2023-03-26T10:09:29.785Z,14.52
2023-03-26T10:15:16.687Z,15.41
2023-03-26T10:20:43.113Z,15.61
2023-03-26T10:26:09.607Z,15.14
2023-03-26T10:31:47.354Z,14.32
2023-03-26T10:37:04.089Z,13.66
2023-03-26T10:42:38.574Z,13.39
2023-03-26T10:48:11.358Z,13.44
2023-03-26T10:53:33.517Z,14.04
2023-03-26T10:58:49.306Z,13.95
2023-03-26T11:04:14.231Z,14.27
2023-03-26T11:09:46.740Z,14.27
2023-03-26T11:15:03.858Z,14.30
2023-03-26T11:20:17.466Z,14.51
2023-03-26T11:25:51.402Z,14.39
2023-03-26T11:31:13.028Z,14.54
2023-03-26T11:36:22.822Z,14.54
2023-03-26T11:41:27.565Z,14.45
2023-03-26T11:46:40.005Z,14.62
2023-03-26T11:51:43.883Z,14.96
2023-03-26T11:57:05.410Z,15.67
2023-03-26T12:02:11.534Z,15.52
2023-03-26T12:07:17.443Z,15.14
2023-03-26T12:12:20.374Z,14.91
2023-03-26T12:17:34.741Z,14.75
2023-03-26T12:22:38.699Z,14.62
2023-03-26T12:27:50.541Z,14.66
2023-03-26T12:32:57.797Z,14.68
2023-03-26T12:38:14.818Z,14.65
2023-03-26T12:44:54.770Z,14.76
2023-03-26T12:48:53.816Z,14.93
2023-03-26T12:54:23.815Z,15.27
2023-03-26T13:00:09.397Z,15.52
2023-03-26T13:05:17.897Z,15.96
2023-03-26T13:10:50.809Z,16.24
2023-03-26T13:15:57.795Z,16.49
2023-03-26T13:21:11.312Z,16.69
2023-03-26T13:27:00.306Z,16.86
2023-03-26T13:32:24.105Z,16.68
2023-03-26T13:37:36.446Z,16.36
2023-03-26T13:43:04.636Z,16.02
2023-03-26T13:48:18.167Z,15.52
2023-03-26T13:53:27.495Z,15.41
2023-03-26T13:58:41.823Z,15.41
2023-03-26T14:04:00.264Z,15.42
2023-03-26T14:09:12.711Z,15.53
2023-03-26T14:14:23.545Z,15.49
2023-03-26T14:20:02.400Z,15.39
2023-03-26T14:25:39.218Z,15.38
2023-03-26T14:30:56.558Z,15.26
2023-03-26T14:36:14.979Z,15.02
2023-03-26T14:41:33.139Z,14.78
2023-03-26T14:46:40.970Z,14.84
2023-03-26T14:52:05.856Z,14.90
2023-03-26T14:57:33.180Z,14.99
2023-03-26T15:03:09.933Z,15.12
2023-03-26T15:08:40.629Z,15.14
2023-03-26T15:14:16.589Z,15.02
2023-03-26T15:19:41.786Z,14.90
2023-03-26T15:25:12.735Z,14.74
2023-03-26T15:30:30.611Z,14.48
2023-03-26T15:36:00.505Z,14.24
2023-03-26T15:41:05.475Z,13.98
2023-03-26T15:46:26.348Z,14.08
2023-03-26T15:51:59.005Z,14.57
2023-03-26T15:57:16.725Z,14.62
2023-03-26T16:03:16.345Z,14.41
2023-03-26T16:08:25.935Z,14.07
2023-03-26T16:13:30.802Z,13.69
2023-03-26T16:18:37.283Z,13.42
2023-03-26T16:23:47.566Z,13.20
2023-03-26T16:28:53.627Z,13.01
2023-03-26T16:34:09.287Z,12.86
2023-03-26T16:39:18.784Z,12.74
2023-03-26T16:44:37.956Z,12.56
2023-03-26T16:50:08.888Z,12.31
2023-03-26T16:55:39.371Z,12.06
2023-03-26T17:00:48.197Z,11.80
2023-03-26T17:06:02.203Z,11.57
2023-03-26T17:11:57.658Z,11.36
2023-03-26T17:17:36.897Z,11.16
2023-03-26T17:22:45.151Z,10.97
2023-03-26T17:28:28.642Z,10.79
2023-03-26T17:33:38.777Z,10.62
2023-03-26T17:38:40.605Z,10.44
2023-03-26T17:43:51.905Z,10.27
2023-03-26T17:49:06.832Z,10.17
2023-03-26T17:54:27.473Z,10.10
2023-03-26T17:59:29.387Z,10.00
2023-03-26T18:04:39.032Z,9.95
2023-03-26T18:10:18.723Z,9.93
2023-03-26T18:15:32.450Z,9.92
2023-03-26T18:20:37.160Z,9.96
2023-03-26T18:25:41.087Z,10.05
2023-03-26T18:30:48.425Z,10.10
2023-03-26T18:35:54.421Z,10.46
2023-03-26T18:40:56.540Z,11.05
2023-03-26T18:45:58.662Z,11.39
2023-03-26T18:51:05.032Z,11.44
2023-03-26T18:56:28.549Z,11.45
2023-03-26T19:01:34.181Z,11.53
2023-03-26T19:06:41.378Z,11.55
2023-03-26T19:11:45.316Z,11.46
2023-03-26T19:16:56.515Z,11.54
2023-03-26T19:21:59.647Z,11.68
2023-03-26T19:27:02.685Z,11.70
2023-03-26T19:32:29.488Z,11.81
2023-03-26T19:37:32.410Z,11.85
2023-03-26T19:42:43.100Z,11.97
2023-03-26T19:48:00.072Z,11.81
2023-03-26T19:53:22.456Z,11.76
2023-03-26T19:58:26.585Z,11.84
2023-03-26T20:03:36.954Z,12.03
2023-03-26T20:08:40.663Z,12.19
2023-03-26T20:13:42.528Z,12.36
2023-03-26T20:18:44.265Z,12.52
2023-03-26T20:23:46.138Z,12.59
2023-03-26T20:28:52.713Z,12.55
2023-03-26T20:33:56.536Z,12.51
2023-03-26T20:38:58.301Z,12.50
2023-03-26T20:44:00.085Z,12.52
2023-03-26T20:49:01.803Z,12.20
2023-03-26T20:54:05.274Z,11.98
2023-03-26T20:59:10.927Z,11.82
2023-03-26T21:04:14.608Z,11.56
2023-03-26T21:09:23.960Z,11.31
2023-03-26T21:14:41.188Z,11.18
2023-03-26T21:19:43.871Z,11.25
2023-03-26T21:25:03.506Z,11.33
2023-03-26T21:30:16.471Z,11.45
2023-03-26T21:35:19.105Z,11.54
2023-03-26T21:40:21.144Z,11.44
2023-03-26T21:45:43.918Z,11.29
2023-03-26T21:50:48.949Z,11.28
2023-03-26T21:56:17.548Z,11.29
2023-03-26T22:01:24.332Z,11.38
2023-03-26T22:06:37.102Z,11.15
2023-03-26T22:11:41.536Z,10.96
2023-03-26T22:16:43.307Z,10.95
2023-03-26T22:21:45.109Z,11.06
2023-03-26T22:26:47.643Z,11.25
2023-03-26T22:31:49.469Z,11.41
2023-03-26T22:36:52.233Z,11.52
2023-03-26T22:41:54.643Z,11.62
2023-03-26T22:46:57.031Z,11.68
2023-03-26T22:51:58.700Z,11.64
2023-03-26T22:57:00.713Z,11.41
2023-03-26T23:02:02.882Z,11.34
2023-03-26T23:07:05.905Z,11.25
2023-03-26T23:12:08.510Z,11.01
2023-03-26T23:17:14.740Z,10.78
2023-03-26T23:22:17.263Z,10.62
2023-03-26T23:27:22.467Z,10.54
2023-03-26T23:32:28.243Z,10.53
2023-03-26T23:37:35.026Z,10.56
2023-03-26T23:42:38.037Z,10.72
2023-03-26T23:47:42.894Z,10.82
2023-03-26T23:52:47.031Z,10.91
2023-03-26T23:57:48.987Z,11.02
